createdAt,value
2019-04-20T00:01:36.015Z,6.50
2019-04-20T00:05:43.395Z,6.40
2019-04-20T00:09:57.531Z,6.30
2019-04-20T00:14:05.566Z,6.20
2019-04-20T00:18:08.126Z,6.10
2019-04-20T00:22:16.902Z,6.00
2019-04-20T00:26:52.429Z,5.90
2019-04-20T00:30:54.406Z,5.90
2019-04-20T00:34:43.598Z,5.80
2019-04-20T00:38:52.975Z,5.80
2019-04-20T00:42:59.540Z,5.70
2019-04-20T00:47:16.965Z,5.60
2019-04-20T00:55:19.071Z,5.60
2019-04-20T00:59:35.392Z,5.60
2019-04-20T01:03:46.191Z,5.70
2019-04-20T01:07:53.517Z,5.70
2019-04-20T01:11:56.620Z,5.60
2019-04-20T01:16:08.485Z,5.50
2019-04-20T01:20:11.606Z,5.50
2019-04-20T01:24:23.950Z,5.40
2019-04-20T01:28:44.056Z,5.40
2019-04-20T01:32:52.220Z,5.40
2019-04-20T01:36:55.928Z,5.50
2019-04-20T01:40:50.338Z,5.40
2019-04-20T01:44:57.398Z,5.40
2019-04-20T01:49:09.389Z,5.30
2019-04-20T01:53:23.923Z,5.20
2019-04-20T01:57:53.540Z,5.10
2019-04-20T02:01:45.598Z,5.10
2019-04-20T02:05:59.350Z,5.00
2019-04-20T02:10:05.097Z,4.90
2019-04-20T02:14:10.933Z,4.90
2019-04-20T02:18:29.981Z,4.80
2019-04-20T02:22:44.705Z,4.80
2019-04-20T02:26:32.324Z,4.80
2019-04-20T02:31:18.274Z,4.80
2019-04-20T02:35:18.646Z,4.90
2019-04-20T02:39:37.928Z,4.90
2019-04-20T02:44:06.621Z,4.80
2019-04-20T02:56:04.898Z,4.90
2019-04-20T03:00:12.385Z,4.80
2019-04-20T03:03:53.904Z,4.80
2019-04-20T03:08:17.658Z,4.80
2019-04-20T03:12:28.853Z,4.70
2019-04-20T03:16:32.392Z,4.70
2019-04-20T03:20:41.723Z,4.80
2019-04-20T03:24:48.581Z,4.70
2019-04-20T03:29:05.754Z,4.60
2019-04-20T03:33:43.456Z,4.70
2019-04-20T03:41:25.504Z,4.50
2019-04-20T03:45:26.561Z,4.50
2019-04-20T03:49:58.016Z,4.40
2019-04-20T03:54:12.153Z,4.40
2019-04-20T03:58:24.178Z,4.30
2019-04-20T04:02:45.473Z,4.20
2019-04-20T04:06:32.835Z,4.20
2019-04-20T04:10:48.533Z,4.20
2019-04-20T04:14:36.787Z,4.20
2019-04-20T04:18:47.593Z,4.30
2019-04-20T04:23:10.402Z,4.40
2019-04-20T04:27:10.114Z,4.50
2019-04-20T04:31:27.220Z,4.60
2019-04-20T04:35:24.665Z,5.10
2019-04-20T04:39:46.965Z,5.40
2019-04-20T04:43:48.324Z,5.90
2019-04-20T04:47:36.808Z,6.90
2019-04-20T04:51:52.080Z,8.70
2019-04-20T04:55:58.575Z,10.80
2019-04-20T04:59:59.846Z,12.70
2019-04-20T05:04:24.810Z,14.60
2019-04-20T05:08:23.398Z,16.50
2019-04-20T05:12:26.786Z,17.60
2019-04-20T05:16:53.984Z,18.70
2019-04-20T05:20:59.678Z,19.60
2019-04-20T05:25:10.647Z,20.50
2019-04-20T05:29:08.769Z,21.90
2019-04-20T05:33:20.039Z,22.60
2019-04-20T05:37:43.247Z,22.30
2019-04-20T05:41:41.978Z,22.70
2019-04-20T05:45:46.327Z,23.40
2019-04-20T05:49:58.684Z,24.90
2019-04-20T05:54:12.302Z,26.00
2019-04-20T05:58:21.898Z,26.40
2019-04-20T06:02:29.365Z,26.50
2019-04-20T06:06:32.904Z,28.30
2019-04-20T06:10:45.255Z,29.50
2019-04-20T06:15:06.857Z,30.00
2019-04-20T06:19:26.071Z,30.40
2019-04-20T06:23:47.904Z,31.20
2019-04-20T06:27:48.918Z,32.20
2019-04-20T06:31:53.360Z,33.00
2019-04-20T06:40:31.925Z,34.60
2019-04-20T06:44:26.694Z,35.80
2019-04-20T06:48:37.020Z,36.30
2019-04-20T06:52:33.943Z,36.80
2019-04-20T06:56:48.343Z,37.70
2019-04-20T07:01:00.121Z,37.80
2019-04-20T07:04:59.666Z,38.30
2019-04-20T07:09:13.897Z,38.90
2019-04-20T07:13:12.878Z,39.90
2019-04-20T07:17:46.022Z,40.60
2019-04-20T07:22:02.292Z,40.90
2019-04-20T07:26:01.889Z,40.70
2019-04-20T07:30:07.978Z,40.80
2019-04-20T07:34:17.209Z,41.50
2019-04-20T07:38:30.920Z,41.70
2019-04-20T07:42:35.838Z,42.00
2019-04-20T07:50:40.834Z,42.90
2019-04-20T07:55:15.365Z,43.60
2019-04-20T07:58:50.938Z,44.10
2019-04-20T08:03:28.184Z,43.50
2019-04-20T08:07:14.107Z,42.80
2019-04-20T08:11:41.187Z,42.80
2019-04-20T08:15:49.165Z,43.30
2019-04-20T08:19:50.852Z,44.00
2019-04-20T08:24:02.487Z,44.80
2019-04-20T08:28:16.482Z,45.80
2019-04-20T08:32:51.870Z,45.50
2019-04-20T08:37:02.934Z,45.40
2019-04-20T08:41:08.250Z,45.00
2019-04-20T08:45:24.128Z,44.20
2019-04-20T08:49:29.757Z,43.50
2019-04-20T08:53:36.946Z,43.60
2019-04-20T08:57:22.563Z,44.20
2019-04-20T09:01:32.670Z,44.90
2019-04-20T09:05:49.963Z,45.00
2019-04-20T09:10:11.898Z,44.60
2019-04-20T09:13:58.438Z,43.80
2019-04-20T09:18:20.604Z,44.00
2019-04-20T09:22:42.173Z,44.40
2019-04-20T09:26:59.135Z,45.10
2019-04-20T09:31:14.281Z,45.90
2019-04-20T09:35:20.600Z,45.80
2019-04-20T09:39:21.583Z,45.50
2019-04-20T09:43:36.880Z,45.20
2019-04-20T09:47:47.886Z,45.30
2019-04-20T09:52:09.656Z,42.90
2019-04-20T09:56:18.073Z,42.70
2019-04-20T10:00:23.565Z,40.80
2019-04-20T10:04:17.426Z,41.20
2019-04-20T10:08:26.022Z,41.20
2019-04-20T10:12:33.526Z,38.90
2019-04-20T10:16:40.073Z,38.40
2019-04-20T10:20:47.359Z,40.30
2019-04-20T10:24:55.927Z,42.10
2019-04-20T10:29:03.613Z,42.70
2019-04-20T10:33:09.971Z,41.40
2019-04-20T10:37:19.649Z,38.90
2019-04-20T10:41:35.906Z,37.30
2019-04-20T10:45:35.100Z,36.40
2019-04-20T10:49:42.934Z,35.70
2019-04-20T10:53:50.541Z,36.00
2019-04-20T10:57:57.654Z,39.20
2019-04-20T11:02:05.583Z,40.70
2019-04-20T11:06:11.927Z,41.80
2019-04-20T11:10:23.899Z,40.40
2019-04-20T11:14:31.386Z,35.90
2019-04-20T11:18:35.447Z,33.70
2019-04-20T11:22:42.203Z,32.50
2019-04-20T11:26:49.614Z,28.90
2019-04-20T11:30:58.412Z,28.50
2019-04-20T11:35:11.066Z,27.30
2019-04-20T11:39:14.730Z,26.40
2019-04-20T11:43:21.828Z,25.40
2019-04-20T11:47:28.481Z,24.60
2019-04-20T11:51:37.320Z,24.50
2019-04-20T11:55:44.600Z,23.80
2019-04-20T11:59:50.972Z,23.50
2019-04-20T12:04:03.423Z,23.30
2019-04-20T12:08:07.546Z,23.10
2019-04-20T12:12:28.992Z,23.00
2019-04-20T12:16:23.610Z,22.60
2019-04-20T12:20:32.408Z,22.50
2019-04-20T12:24:40.264Z,22.50
2019-04-20T12:28:47.537Z,22.20
2019-04-20T12:32:57.613Z,22.20
2019-04-20T12:37:03.425Z,22.60
2019-04-20T12:41:12.528Z,22.70
2019-04-20T12:45:19.662Z,22.20
2019-04-20T12:49:25.950Z,21.60
2019-04-20T12:53:32.733Z,21.60
2019-04-20T12:57:39.057Z,21.70
2019-04-20T13:01:45.289Z,21.60
2019-04-20T13:05:52.001Z,21.70
2019-04-20T13:09:58.873Z,21.50
2019-04-20T13:14:30.591Z,21.30
2019-04-20T13:18:39.214Z,21.50
2019-04-20T13:22:46.633Z,21.80
2019-04-20T13:26:53.130Z,21.70
2019-04-20T13:30:59.755Z,21.60
2019-04-20T13:35:10.098Z,21.40
2019-04-20T13:39:17.467Z,21.50
2019-04-20T13:43:23.856Z,21.80
2019-04-20T13:47:30.559Z,22.00
2019-04-20T13:51:39.091Z,22.20
2019-04-20T13:55:45.749Z,22.10
2019-04-20T13:59:58.026Z,22.00
2019-04-20T14:04:16.797Z,21.80
2019-04-20T14:08:27.392Z,21.20
2019-04-20T14:12:38.617Z,20.90
2019-04-20T14:16:41.642Z,20.80
2019-04-20T14:20:48.202Z,20.90
2019-04-20T14:24:55.166Z,20.80
2019-04-20T14:29:02.979Z,20.70
2019-04-20T14:33:10.571Z,20.60
2019-04-20T14:37:17.173Z,20.70
2019-04-20T14:41:24.345Z,20.60
2019-04-20T14:45:30.657Z,20.60
2019-04-20T14:49:36.919Z,20.50
2019-04-20T14:53:43.309Z,20.40
2019-04-20T14:57:49.845Z,20.40
2019-04-20T15:02:00.797Z,20.30
2019-04-20T15:06:07.547Z,20.30
2019-04-20T15:10:14.895Z,20.30
2019-04-20T15:14:22.682Z,20.30
2019-04-20T15:18:31.494Z,20.10
2019-04-20T15:22:39.394Z,20.10
2019-04-20T15:26:46.595Z,20.20
2019-04-20T15:30:54.168Z,20.10
2019-04-20T15:35:00.743Z,20.00
2019-04-20T15:39:07.478Z,20.00
2019-04-20T15:43:19.457Z,19.90
2019-04-20T15:47:23.333Z,19.80
2019-04-20T15:51:29.983Z,19.70
2019-04-20T15:55:39.847Z,19.70
2019-04-20T15:59:44.480Z,19.60
2019-04-20T16:03:53.110Z,19.50
2019-04-20T16:08:03.977Z,19.50
2019-04-20T16:12:09.010Z,19.50
2019-04-20T16:16:16.209Z,19.40
2019-04-20T16:20:23.951Z,19.30
2019-04-20T16:24:32.944Z,19.30
2019-04-20T16:28:39.941Z,19.20
2019-04-20T16:32:46.206Z,19.20
2019-04-20T16:36:54.678Z,19.10
2019-04-20T16:41:02.102Z,19.00
2019-04-20T16:45:09.478Z,19.00
2019-04-20T16:49:16.973Z,18.90
2019-04-20T16:53:24.481Z,18.90
2019-04-20T16:57:31.860Z,18.80
2019-04-20T17:01:38.145Z,18.70
2019-04-20T17:05:45.326Z,18.60
2019-04-20T17:09:53.909Z,18.50
2019-04-20T17:14:01.826Z,18.30
2019-04-20T17:18:09.517Z,18.20
2019-04-20T17:22:17.172Z,18.10
2019-04-20T17:26:43.245Z,18.00
2019-04-20T17:30:54.958Z,17.90
2019-04-20T17:35:15.754Z,17.70
2019-04-20T17:39:12.515Z,17.60
2019-04-20T17:43:25.159Z,17.50
2019-04-20T17:47:44.910Z,17.30
2019-04-20T17:51:59.285Z,17.20
2019-04-20T17:55:53.529Z,17.00
2019-04-20T18:00:09.047Z,16.80
2019-04-20T18:04:51.879Z,16.60
2019-04-20T18:08:43.695Z,16.30
2019-04-20T18:12:40.698Z,16.00
2019-04-20T18:17:08.859Z,15.80
2019-04-20T18:21:03.510Z,15.50
2019-04-20T18:25:32.823Z,15.30
2019-04-20T18:29:37.239Z,15.10
2019-04-20T18:33:33.513Z,14.90
2019-04-20T18:37:38.267Z,14.70
2019-04-20T18:41:49.868Z,14.40
2019-04-20T18:46:15.075Z,14.30
2019-04-20T18:50:10.806Z,14.20
2019-04-20T18:54:17.404Z,14.00
2019-04-20T18:58:19.189Z,13.80
2019-04-20T19:02:30.889Z,13.50
2019-04-20T19:06:35.667Z,13.10
2019-04-20T19:10:43.678Z,12.80
2019-04-20T19:15:19.925Z,12.60
2019-04-20T19:19:23.430Z,12.40
2019-04-20T19:23:18.863Z,12.10
2019-04-20T19:27:35.805Z,12.00
2019-04-20T19:31:45.778Z,11.80
2019-04-20T19:35:52.224Z,11.70
2019-04-20T19:40:02.929Z,11.50
2019-04-20T19:44:09.973Z,11.40
2019-04-20T19:48:17.686Z,11.20
2019-04-20T19:52:36.914Z,11.00
2019-04-20T19:56:37.404Z,10.90
2019-04-20T20:00:46.379Z,10.70
2019-04-20T20:04:58.538Z,10.60
2019-04-20T20:09:04.239Z,10.40
2019-04-20T20:13:10.952Z,10.40
2019-04-20T20:17:37.173Z,10.30
2019-04-20T20:21:38.525Z,10.20
2019-04-20T20:25:38.498Z,10.10
2019-04-20T20:29:54.594Z,10.10
2019-04-20T20:34:03.036Z,10.00
2019-04-20T20:38:00.555Z,9.90
2019-04-20T20:42:21.860Z,9.70
2019-04-20T20:46:24.057Z,9.50
2019-04-20T20:50:42.860Z,9.40
2019-04-20T20:54:41.282Z,9.30
2019-04-20T20:58:48.589Z,9.20
2019-04-20T21:02:53.096Z,9.20
2019-04-20T21:06:52.886Z,9.20
2019-04-20T21:11:00.245Z,9.10
2019-04-20T21:15:16.350Z,9.00
2019-04-20T21:19:28.636Z,9.00
2019-04-20T21:23:40.431Z,9.00
2019-04-20T21:27:32.902Z,8.90
2019-04-20T21:31:43.357Z,8.90
2019-04-20T21:35:50.508Z,8.80
2019-04-20T21:39:59.543Z,8.80
2019-04-20T21:44:06.851Z,8.60
2019-04-20T21:48:31.791Z,8.40
2019-04-20T21:52:27.030Z,8.30
2019-04-20T21:56:28.085Z,8.20
2019-04-20T22:00:44.612Z,8.10
2019-04-20T22:04:49.297Z,8.00
2019-04-20T22:09:00.419Z,8.00
2019-04-20T22:13:04.857Z,7.90
2019-04-20T22:17:14.146Z,7.80
2019-04-20T22:21:26.473Z,7.70
2019-04-20T22:25:42.646Z,7.60
2019-04-20T22:29:36.305Z,7.50
2019-04-20T22:33:44.937Z,7.50
2019-04-20T22:38:01.143Z,7.40
2019-04-20T22:42:07.145Z,7.40
2019-04-20T22:46:09.584Z,7.30
2019-04-20T22:50:32.080Z,7.20
2019-04-20T22:54:39.854Z,7.20
2019-04-20T22:58:44.861Z,7.20
2019-04-20T23:02:38.838Z,7.20
2019-04-20T23:06:49.748Z,7.10
2019-04-20T23:10:53.561Z,7.10
2019-04-20T23:15:00.465Z,7.10
2019-04-20T23:19:07.903Z,7.00
2019-04-20T23:23:18.175Z,6.90
2019-04-20T23:27:28.229Z,6.80
2019-04-20T23:31:30.457Z,6.70
2019-04-20T23:35:37.617Z,6.60
2019-04-20T23:39:47.262Z,6.60
2019-04-20T23:44:01.742Z,6.50
2019-04-20T23:48:07.156Z,6.50
2019-04-20T23:52:38.943Z,6.40
2019-04-20T23:56:22.518Z,6.40
